Time;durP1;ratioP1;P1;durP2;ratioP2;P2;SDS_P1;SDS_P2;PMS_P1;PMS_P2;Temp;Humidity;BMP_temperature;BMP_pressure;BME280_temperature;BME280_humidity;BME280_pressure;Samples;Min_cycle;Max_cycle;Signal;HPM_P1;HPM_P2
2023/07/16 00:00:33;;;;;;;;;;;;;;;16.59;86.94;100828.19;4917300;29;19934;-84
2023/07/16 00:02:59;;;;;;;;;;;;;;;16.55;86.65;100831.03;4917622;29;20281;-84
2023/07/16 00:05:24;;;;;;;;;;;;;;;16.51;86.55;100833.91;4934943;29;19931;-84
2023/07/16 00:07:50;;;;;;;;;;;;;;;16.45;86.10;100836.88;4935118;29;20009;-84
2023/07/16 00:10:15;;;;;;;;;;;;;;;16.38;85.81;100832.75;4933541;29;19974;-84
2023/07/16 00:12:40;;;;;;;;;;;;;;;16.35;85.45;100836.44;4935048;29;19950;-84
2023/07/16 00:15:06;;;;;;;;;;;;;;;16.28;85.68;100837.66;4952526;29;19926;-84
2023/07/16 00:17:33;;;;;;;;;;;;;;;16.22;85.56;100844.16;4936720;29;20021;-84
2023/07/16 00:19:58;;;;;;;;;;;;;;;16.17;85.25;100843.50;4952446;29;19926;-84
2023/07/16 00:22:24;;;;;;;;;;;;;;;16.16;85.51;100841.75;4952420;29;19922;-84
2023/07/16 00:24:50;;;;;;;;;;;;;;;16.15;84.88;100844.47;4941018;29;19975;-85
2023/07/16 00:27:15;;;;;;;;;;;;;;;16.10;85.00;100847.38;4952289;29;20005;-84
2023/07/16 00:29:42;;;;;;;;;;;;;;;16.03;85.53;100843.25;4953443;28;19937;-84
2023/07/16 00:32:08;;;;;;;;;;;;;;;15.95;85.26;100846.25;4954132;29;20029;-85
2023/07/16 00:34:33;;;;;;;;;;;;;;;15.89;85.74;100846.50;4968558;28;19938;-84
2023/07/16 00:37:01;;;;;;;;;;;;;;;15.90;85.10;100850.94;4957477;28;19918;-84
2023/07/16 00:39:27;;;;;;;;;;;;;;;15.86;85.01;100847.50;4966791;28;19933;-84
2023/07/16 00:41:53;;;;;;;;;;;;;;;15.84;84.46;100857.38;4957597;29;19945;-84
2023/07/16 00:44:18;;;;;;;;;;;;;;;15.85;84.45;100847.56;4972239;28;19926;-83
2023/07/16 00:46:43;;;;;;;;;;;;;;;15.80;85.14;100847.78;4956671;29;19922;-83
2023/07/16 00:49:11;;;;;;;;;;;;;;;15.78;84.85;100849.66;4943522;29;20282;-83
2023/07/16 00:51:37;;;;;;;;;;;;;;;15.72;85.32;100855.25;4936271;29;19930;-84
2023/07/16 00:54:03;;;;;;;;;;;;;;;15.69;84.63;100848.25;4953585;29;19976;-83
2023/07/16 00:56:29;;;;;;;;;;;;;;;15.66;84.04;100842.16;4936310;29;20385;-84
2023/07/16 00:58:54;;;;;;;;;;;;;;;15.64;84.40;100842.19;4953357;29;20009;-83
2023/07/16 01:01:20;;;;;;;;;;;;;;;15.57;84.22;100848.72;4952203;29;19938;-83
2023/07/16 01:03:45;;;;;;;;;;;;;;;15.54;84.22;100835.53;4946983;29;19941;-85
2023/07/16 01:06:16;;;;;;;;;;;;;;;15.50;85.15;100847.25;4952309;29;20377;-85
2023/07/16 01:08:53;;;;;;;;;;;;;;;15.47;84.12;100850.06;4946790;29;20448;-84
2023/07/16 01:11:18;;;;;;;;;;;;;;;15.39;84.30;100852.19;4953648;29;19966;-84
2023/07/16 01:13:44;;;;;;;;;;;;;;;15.33;84.36;100855.09;4936275;29;20374;-85
2023/07/16 01:16:20;;;;;;;;;;;;;;;15.30;85.25;100850.75;4933159;29;19922;-85
2023/07/16 01:18:45;;;;;;;;;;;;;;;15.26;85.28;100852.69;4901566;29;20021;-84
2023/07/16 01:21:11;;;;;;;;;;;;;;;15.22;84.16;100844.88;4928757;29;20357;-84
2023/07/16 01:23:51;;;;;;;;;;;;;;;15.20;84.33;100852.06;4909898;29;19919;-84
2023/07/16 01:26:26;;;;;;;;;;;;;;;15.16;85.05;100856.66;4917265;29;19919;-84
2023/07/16 01:29:00;;;;;;;;;;;;;;;15.14;84.21;100842.53;4936632;29;20346;-84
2023/07/16 01:31:27;;;;;;;;;;;;;;;15.10;84.75;100838.22;4932767;29;19919;-85
2023/07/16 01:33:53;;;;;;;;;;;;;;;15.08;83.92;100848.09;4932963;29;19998;-85
2023/07/16 01:36:19;;;;;;;;;;;;;;;15.05;85.14;100838.41;4934263;29;19934;-84
2023/07/16 01:38:44;;;;;;;;;;;;;;;15.01;85.26;100838.63;4910803;29;20012;-85
2023/07/16 01:41:10;;;;;;;;;;;;;;;14.99;85.20;100841.34;4921032;29;20038;-84
2023/07/16 01:43:35;;;;;;;;;;;;;;;14.97;85.32;100845.00;4937574;29;20274;-84
2023/07/16 01:46:01;;;;;;;;;;;;;;;14.94;85.04;100846.00;4921008;29;20002;-84
2023/07/16 01:48:30;;;;;;;;;;;;;;;14.94;85.83;100848.66;4935007;29;19974;-84
2023/07/16 01:50:56;;;;;;;;;;;;;;;14.95;85.62;100847.72;4927635;29;19937;-84
2023/07/16 01:53:21;;;;;;;;;;;;;;;14.94;85.92;100846.00;4906948;29;20327;-84
2023/07/16 01:55:47;;;;;;;;;;;;;;;14.93;86.30;100849.56;4901422;29;20362;-84
2023/07/16 01:58:12;;;;;;;;;;;;;;;14.95;86.94;100853.06;4913615;29;19983;-84
2023/07/16 02:00:39;;;;;;;;;;;;;;;14.94;86.86;100848.66;4919100;29;19927;-84
2023/07/16 02:03:04;;;;;;;;;;;;;;;14.96;87.56;100843.25;4933996;29;19923;-85
2023/07/16 02:05:31;;;;;;;;;;;;;;;14.97;87.81;100843.19;4896222;29;19919;-84
2023/07/16 02:07:56;;;;;;;;;;;;;;;14.99;88.38;100835.16;4937155;29;19923;-84
2023/07/16 02:10:21;;;;;;;;;;;;;;;14.98;87.11;100841.41;4919639;29;19923;-84
2023/07/16 02:12:47;;;;;;;;;;;;;;;14.98;88.74;100847.59;4920058;29;19927;-85
2023/07/16 02:15:12;;;;;;;;;;;;;;;15.01;90.58;100841.28;4904391;29;19934;-85
2023/07/16 02:17:38;;;;;;;;;;;;;;;15.01;89.50;100851.97;4935638;29;19923;-85
2023/07/16 02:20:06;;;;;;;;;;;;;;;15.01;89.71;100839.50;4943186;29;19926;-84
2023/07/16 02:22:31;;;;;;;;;;;;;;;15.03;90.94;100847.41;4922009;29;20018;-84
2023/07/16 02:24:57;;;;;;;;;;;;;;;15.02;91.30;100845.69;4910819;29;20062;-84
2023/07/16 02:27:22;;;;;;;;;;;;;;;15.01;92.04;100844.81;4899719;29;19923;-84
2023/07/16 02:29:47;;;;;;;;;;;;;;;15.00;90.88;100845.72;4919729;29;19949;-84
2023/07/16 02:32:13;;;;;;;;;;;;;;;15.02;90.60;100845.69;4935247;29;19923;-84
2023/07/16 02:34:38;;;;;;;;;;;;;;;15.05;92.37;100859.75;4935345;29;19986;-85
2023/07/16 02:37:04;;;;;;;;;;;;;;;15.08;90.80;100866.75;4919769;29;20020;-84
2023/07/16 02:39:29;;;;;;;;;;;;;;;15.10;94.20;100856.91;4919310;29;20378;-85
2023/07/16 02:41:54;;;;;;;;;;;;;;;15.11;93.40;100869.31;4936785;29;19929;-84
2023/07/16 02:44:20;;;;;;;;;;;;;;;15.13;90.94;100872.78;4934983;29;19978;-84
2023/07/16 02:46:45;;;;;;;;;;;;;;;15.13;90.60;100861.25;4935340;29;20267;-85
2023/07/16 02:49:11;;;;;;;;;;;;;;;15.19;90.77;100872.53;4934725;29;19930;-85
2023/07/16 02:51:36;;;;;;;;;;;;;;;15.14;91.23;100873.66;4920237;29;20009;-85
2023/07/16 02:54:01;;;;;;;;;;;;;;;15.13;90.18;100878.09;4935377;29;20274;-84
2023/07/16 02:56:27;;;;;;;;;;;;;;;15.10;91.47;100874.72;4934911;29;20025;-85
2023/07/16 02:58:52;;;;;;;;;;;;;;;15.09;91.12;100878.31;4923937;29;19926;-85
2023/07/16 03:01:18;;;;;;;;;;;;;;;15.05;90.96;100867.75;4934676;29;20105;-85
2023/07/16 03:03:43;;;;;;;;;;;;;;;15.04;92.21;100871.34;4934572;29;19926;-87
2023/07/16 03:06:09;;;;;;;;;;;;;;;15.03;92.44;100877.63;4918856;29;19945;-86
2023/07/16 03:08:34;;;;;;;;;;;;;;;15.03;93.29;100871.41;4937019;29;19978;-85
2023/07/16 03:10:59;;;;;;;;;;;;;;;15.02;92.01;100867.88;4936165;29;19914;-85
2023/07/16 03:13:25;;;;;;;;;;;;;;;15.02;90.89;100873.22;4922478;29;20029;-84
2023/07/16 03:15:51;;;;;;;;;;;;;;;15.04;91.77;100879.38;4915537;29;20440;-87
2023/07/16 03:18:18;;;;;;;;;;;;;;;15.02;92.87;100880.34;4936519;29;19945;-87
2023/07/16 03:20:43;;;;;;;;;;;;;;;15.01;91.94;100879.50;4937626;29;19929;-87
2023/07/16 03:23:09;;;;;;;;;;;;;;;15.01;94.20;100883.97;4944182;29;19923;-87
2023/07/16 03:25:34;;;;;;;;;;;;;;;15.02;92.84;100897.22;4939933;29;19941;-86
2023/07/16 03:28:00;;;;;;;;;;;;;;;15.08;93.75;100887.22;4939967;29;20364;-86
2023/07/16 03:30:25;;;;;;;;;;;;;;;15.08;94.43;100884.56;4934137;29;20342;-86
2023/07/16 03:32:51;;;;;;;;;;;;;;;15.10;94.24;100896.06;4922990;29;20358;-85
2023/07/16 03:35:16;;;;;;;;;;;;;;;15.03;93.54;100893.63;4935913;29;19938;-83
2023/07/16 03:37:41;;;;;;;;;;;;;;;15.02;92.85;100891.03;4920771;29;20011;-88
2023/07/16 03:40:14;;;;;;;;;;;;;;;15.03;91.64;100903.41;4902409;29;19930;-82
2023/07/16 03:42:42;;;;;;;;;;;;;;;15.04;90.40;100908.69;4933829;29;19926;-85
2023/07/16 03:45:08;;;;;;;;;;;;;;;14.97;90.07;100901.00;4933880;29;20318;-83
2023/07/16 03:47:33;;;;;;;;;;;;;;;14.93;89.59;100902.03;4946130;29;19923;-82
2023/07/16 03:49:59;;;;;;;;;;;;;;;14.89;89.54;100911.97;4906837;29;19930;-84
2023/07/16 03:52:26;;;;;;;;;;;;;;;14.93;87.80;100916.22;4902338;29;19974;-82
2023/07/16 03:54:51;;;;;;;;;;;;;;;14.90;87.83;100919.03;4933882;29;19919;-85
2023/07/16 03:57:17;;;;;;;;;;;;;;;14.81;88.25;100930.94;4906931;29;19932;-84
2023/07/16 03:59:42;;;;;;;;;;;;;;;14.83;87.07;100926.38;4933726;29;19933;-84
2023/07/16 04:02:08;;;;;;;;;;;;;;;14.75;87.58;100925.81;4935466;29;20258;-84
2023/07/16 04:04:34;;;;;;;;;;;;;;;14.69;87.76;100926.06;4932752;29;19923;-82
2023/07/16 04:06:59;;;;;;;;;;;;;;;14.66;87.68;100931.47;4935523;29;19941;-84
2023/07/16 04:09:25;;;;;;;;;;;;;;;14.64;87.17;100938.69;4944402;28;20262;-83
2023/07/16 04:11:50;;;;;;;;;;;;;;;14.67;86.67;100935.03;4922086;29;19923;-84
2023/07/16 04:14:16;;;;;;;;;;;;;;;14.59;87.32;100938.00;4936023;29;19965;-82
2023/07/16 04:16:41;;;;;;;;;;;;;;;14.58;87.06;100946.91;4938536;29;19989;-82
2023/07/16 04:19:08;;;;;;;;;;;;;;;14.55;86.88;100936.34;4935821;29;20018;-83
2023/07/16 04:21:33;;;;;;;;;;;;;;;14.53;86.84;100941.72;4936533;29;19919;-82
2023/07/16 04:23:58;;;;;;;;;;;;;;;14.53;86.66;100938.16;4934137;29;20346;-83
2023/07/16 04:26:24;;;;;;;;;;;;;;;14.54;86.12;100950.59;4944549;29;20405;-81
2023/07/16 04:28:49;;;;;;;;;;;;;;;14.54;85.75;100948.81;4937886;29;20334;-83
2023/07/16 04:31:15;;;;;;;;;;;;;;;14.51;85.91;100951.53;4935609;29;20410;-81
2023/07/16 04:33:40;;;;;;;;;;;;;;;14.51;85.53;100958.66;4935005;29;19962;-83
2023/07/16 04:36:05;;;;;;;;;;;;;;;14.49;85.56;100968.50;4916241;29;19941;-83
2023/07/16 04:38:31;;;;;;;;;;;;;;;14.51;84.97;100972.00;4934029;29;19975;-82
2023/07/16 04:40:56;;;;;;;;;;;;;;;14.49;85.21;100971.16;4933818;29;20370;-82
2023/07/16 04:43:21;;;;;;;;;;;;;;;14.51;84.62;100972.84;4933552;29;19922;-82
2023/07/16 04:45:47;;;;;;;;;;;;;;;14.57;84.22;100982.47;4917766;29;19923;-82
2023/07/16 04:48:13;;;;;;;;;;;;;;;14.54;84.51;100979.91;4901947;29;19923;-82
2023/07/16 04:50:39;;;;;;;;;;;;;;;14.61;83.33;100973.44;4917583;29;19945;-82
2023/07/16 04:53:04;;;;;;;;;;;;;;;14.52;84.33;100982.59;4934806;29;19925;-84
2023/07/16 04:55:34;;;;;;;;;;;;;;;14.52;84.02;100985.28;4934755;29;19918;-81
2023/07/16 04:57:59;;;;;;;;;;;;;;;14.52;84.59;100992.41;4917449;29;19982;-82
2023/07/16 05:00:25;;;;;;;;;;;;;;;14.52;84.42;100990.59;4934611;29;19923;-81
2023/07/16 05:02:50;;;;;;;;;;;;;;;14.54;84.27;100996.78;4933704;29;20362;-83
2023/07/16 05:05:15;;;;;;;;;;;;;;;14.54;84.50;100993.22;4917528;29;19923;-80
2023/07/16 05:07:41;;;;;;;;;;;;;;;14.55;84.72;101002.97;4933118;29;20017;-81
2023/07/16 05:10:06;;;;;;;;;;;;;;;14.58;84.08;100998.41;4932350;29;19949;-82
2023/07/16 05:12:32;;;;;;;;;;;;;;;14.61;83.98;101000.06;4932861;29;19923;-81
2023/07/16 05:14:57;;;;;;;;;;;;;;;14.63;84.32;100998.22;4936546;29;20270;-80
2023/07/16 05:17:23;;;;;;;;;;;;;;;14.67;84.23;101001.69;4940303;29;19973;-81
2023/07/16 05:19:48;;;;;;;;;;;;;;;14.75;83.70;100991.59;4955658;29;19929;-79
2023/07/16 05:22:14;;;;;;;;;;;;;;;14.76;83.68;100996.88;4955425;29;20033;-81
2023/07/16 05:24:39;;;;;;;;;;;;;;;14.80;83.11;100994.97;4955816;29;19976;-79
2023/07/16 05:27:04;;;;;;;;;;;;;;;14.87;83.30;101003.59;4955549;29;20290;-80
2023/07/16 05:29:30;;;;;;;;;;;;;;;14.89;82.98;101004.44;4955656;29;19922;-81
2023/07/16 05:31:55;;;;;;;;;;;;;;;15.00;82.00;101012.88;4955480;29;20394;-80
2023/07/16 05:34:21;;;;;;;;;;;;;;;15.01;81.63;101007.50;4957491;28;20017;-80
2023/07/16 05:36:46;;;;;;;;;;;;;;;15.02;81.69;101009.22;4956635;28;19918;-81
2023/07/16 05:39:12;;;;;;;;;;;;;;;15.03;82.40;101013.66;4956541;28;20013;-81
2023/07/16 05:41:39;;;;;;;;;;;;;;;15.12;81.81;101022.22;4939287;29;19922;-78
2023/07/16 05:44:04;;;;;;;;;;;;;;;15.18;80.81;101020.19;4956368;29;19918;-80
2023/07/16 05:46:29;;;;;;;;;;;;;;;15.20;80.99;101020.13;4939253;29;19929;-81
2023/07/16 05:48:55;;;;;;;;;;;;;;;15.27;80.14;101018.97;4956313;29;19923;-80
2023/07/16 05:51:20;;;;;;;;;;;;;;;15.36;79.95;101023.09;4969310;28;19922;-80
2023/07/16 05:53:46;;;;;;;;;;;;;;;15.36;79.56;101023.09;4954916;29;19929;-79
2023/07/16 05:56:12;;;;;;;;;;;;;;;15.42;79.52;101033.50;4942458;29;19923;-80
2023/07/16 05:58:37;;;;;;;;;;;;;;;15.46;78.65;101036.00;4954617;29;19942;-82
2023/07/16 06:01:03;;;;;;;;;;;;;;;15.56;78.10;101035.66;4956068;29;19940;-79
2023/07/16 06:03:28;;;;;;;;;;;;;;;15.62;77.77;101040.72;4939012;29;20313;-80
2023/07/16 06:05:53;;;;;;;;;;;;;;;15.64;78.15;101041.53;4962158;29;19976;-79
2023/07/16 06:08:19;;;;;;;;;;;;;;;15.71;77.97;101042.22;4972599;28;20369;-79
2023/07/16 06:10:45;;;;;;;;;;;;;;;15.78;77.39;101043.72;4956937;29;19946;-78
2023/07/16 06:13:10;;;;;;;;;;;;;;;15.81;77.29;101039.09;4959084;29;19922;-79
2023/07/16 06:15:36;;;;;;;;;;;;;;;15.84;77.03;101040.78;4955159;29;19987;-79
2023/07/16 06:18:01;;;;;;;;;;;;;;;15.91;77.79;101034.25;4936987;29;19922;-80
2023/07/16 06:20:28;;;;;;;;;;;;;;;15.99;76.63;101048.16;4936905;29;19930;-80
2023/07/16 06:22:54;;;;;;;;;;;;;;;16.03;77.19;101041.78;4951275;29;19929;-80
2023/07/16 06:25:19;;;;;;;;;;;;;;;16.10;76.16;101040.59;4934915;29;19923;-79
2023/07/16 06:27:44;;;;;;;;;;;;;;;16.23;75.72;101040.06;4941334;28;19952;-78
2023/07/16 06:30:10;;;;;;;;;;;;;;;16.25;75.17;101049.75;4936563;29;19926;-79
2023/07/16 06:32:35;;;;;;;;;;;;;;;16.34;74.78;101056.50;4935079;29;20323;-78
2023/07/16 06:35:00;;;;;;;;;;;;;;;16.39;75.42;101051.81;4934278;29;19923;-78
2023/07/16 06:37:26;;;;;;;;;;;;;;;16.44;75.18;101055.16;4922211;29;19958;-78
2023/07/16 06:39:51;;;;;;;;;;;;;;;16.51;74.48;101069.16;4939733;29;20002;-77
2023/07/16 06:42:17;;;;;;;;;;;;;;;16.56;74.97;101067.16;4936107;29;20390;-79
2023/07/16 06:44:42;;;;;;;;;;;;;;;16.63;73.55;101067.75;4903173;29;19922;-77
2023/07/16 06:47:08;;;;;;;;;;;;;;;16.75;72.93;101075.25;4943381;29;19923;-78
2023/07/16 06:49:33;;;;;;;;;;;;;;;16.72;73.37;101081.59;4939461;29;19924;-78
2023/07/16 06:52:01;;;;;;;;;;;;;;;16.82;73.13;101073.22;4916386;29;20025;-78
2023/07/16 06:54:27;;;;;;;;;;;;;;;16.84;72.79;101069.53;4935496;29;19958;-77
2023/07/16 06:56:52;;;;;;;;;;;;;;;16.93;73.97;101078.94;4939656;29;19963;-78
2023/07/16 06:59:17;;;;;;;;;;;;;;;17.04;71.73;101078.47;4949807;29;19930;-76
2023/07/16 07:01:43;;;;;;;;;;;;;;;17.07;73.24;101087.22;4936010;29;19927;-78
2023/07/16 07:04:08;;;;;;;;;;;;;;;17.18;71.92;101087.63;4916951;29;19923;-77
2023/07/16 07:06:33;;;;;;;;;;;;;;;17.30;71.19;101082.63;4937947;29;19930;-77
2023/07/16 07:08:59;;;;;;;;;;;;;;;17.29;71.00;101100.50;4941009;29;19934;-78
2023/07/16 07:11:24;;;;;;;;;;;;;;;17.31;71.27;101100.41;4941861;29;20116;-77
2023/07/16 07:13:51;;;;;;;;;;;;;;;17.42;70.64;101099.00;4934188;29;19927;-77
2023/07/16 07:16:17;;;;;;;;;;;;;;;17.45;69.77;101100.66;4921973;29;19922;-77
2023/07/16 07:18:42;;;;;;;;;;;;;;;17.53;69.51;101113.69;4936965;29;19942;-77
2023/07/16 07:21:08;;;;;;;;;;;;;;;17.55;69.21;101109.13;4954694;29;19930;-77
2023/07/16 07:23:33;;;;;;;;;;;;;;;17.58;70.22;101117.00;4952743;28;20345;-77
2023/07/16 07:25:59;;;;;;;;;;;;;;;17.70;69.58;101107.53;4954154;29;19930;-77
2023/07/16 07:28:25;;;;;;;;;;;;;;;17.69;69.21;101114.72;4954698;29;19922;-78
2023/07/16 07:30:50;;;;;;;;;;;;;;;17.81;69.51;101113.31;4952944;29;19929;-78
2023/07/16 07:33:16;;;;;;;;;;;;;;;17.90;67.98;101110.16;4953471;28;20059;-76
2023/07/16 07:35:41;;;;;;;;;;;;;;;17.90;69.46;101111.97;4944400;28;20381;-77
2023/07/16 07:38:06;;;;;;;;;;;;;;;18.02;69.01;101111.38;4953523;28;20013;-78
2023/07/16 07:40:32;;;;;;;;;;;;;;;18.07;67.82;101106.66;4946943;28;19998;-77
2023/07/16 07:42:57;;;;;;;;;;;;;;;18.22;66.93;101116.66;4936276;29;20320;-77
2023/07/16 07:45:23;;;;;;;;;;;;;;;18.22;66.74;101119.34;4954039;29;20429;-78
2023/07/16 07:47:48;;;;;;;;;;;;;;;18.19;67.41;101110.56;4952024;28;19927;-77
2023/07/16 07:50:14;;;;;;;;;;;;;;;18.41;65.88;101121.09;4960790;28;20250;-76
2023/07/16 07:52:39;;;;;;;;;;;;;;;18.29;66.44;101109.16;4953725;29;19919;-76
2023/07/16 07:55:05;;;;;;;;;;;;;;;18.36;66.27;101120.47;4955080;28;19926;-77
2023/07/16 07:57:30;;;;;;;;;;;;;;;18.39;66.28;101117.63;4960186;28;19976;-77
2023/07/16 07:59:59;;;;;;;;;;;;;;;18.54;65.77;101119.50;4920668;29;20407;-78
2023/07/16 08:02:24;;;;;;;;;;;;;;;18.59;66.17;101117.47;4953054;28;19930;-76
2023/07/16 08:04:54;;;;;;;;;;;;;;;18.70;65.11;101119.63;4934333;29;19918;-78
2023/07/16 08:07:19;;;;;;;;;;;;;;;18.77;65.30;101131.81;4956434;28;20405;-77
2023/07/16 08:09:46;;;;;;;;;;;;;;;18.83;64.48;101123.44;4951568;28;19998;-78
2023/07/16 08:12:11;;;;;;;;;;;;;;;18.90;63.55;101124.00;4954296;28;19922;-77
2023/07/16 08:14:36;;;;;;;;;;;;;;;18.80;63.61;101120.91;4953022;29;19938;-77
2023/07/16 08:17:02;;;;;;;;;;;;;;;18.85;64.31;101123.38;4935756;29;19953;-77
2023/07/16 08:19:27;;;;;;;;;;;;;;;18.87;64.39;101129.53;4935590;29;19933;-78
2023/07/16 08:21:53;;;;;;;;;;;;;;;18.94;63.20;101132.72;4919890;29;20267;-78
2023/07/16 08:24:18;;;;;;;;;;;;;;;18.96;63.35;101142.44;4935602;29;19926;-77
2023/07/16 08:26:43;;;;;;;;;;;;;;;18.97;62.93;101132.59;4953200;29;19944;-77
2023/07/16 08:29:09;;;;;;;;;;;;;;;19.00;63.63;101135.97;4919811;29;19919;-77
2023/07/16 08:31:34;;;;;;;;;;;;;;;19.11;64.13;101122.88;4952177;28;20036;-77
2023/07/16 08:33:59;;;;;;;;;;;;;;;19.21;63.23;101133.94;4953544;28;19919;-78
2023/07/16 08:36:25;;;;;;;;;;;;;;;19.34;63.36;101135.06;4965322;28;20341;-78
2023/07/16 08:38:51;;;;;;;;;;;;;;;19.48;63.66;101133.44;4953009;29;20313;-79
2023/07/16 08:41:16;;;;;;;;;;;;;;;19.73;63.65;101128.50;4952657;29;20021;-78
2023/07/16 08:43:42;;;;;;;;;;;;;;;19.88;62.02;101140.22;4952934;29;19922;-77
2023/07/16 08:46:08;;;;;;;;;;;;;;;19.86;61.13;101133.19;4935681;29;20057;-78
2023/07/16 08:48:33;;;;;;;;;;;;;;;19.90;62.30;101132.03;4953304;29;19930;-77
2023/07/16 08:51:01;;;;;;;;;;;;;;;20.13;62.10;101141.50;4922123;29;19930;-77
2023/07/16 08:53:26;;;;;;;;;;;;;;;20.20;60.17;101137.47;4939509;29;19918;-77
2023/07/16 08:55:52;;;;;;;;;;;;;;;20.23;59.28;101148.09;4957243;29;20045;-79
2023/07/16 08:58:17;;;;;;;;;;;;;;;20.19;59.49;101144.69;4939650;29;20335;-78
2023/07/16 09:00:43;;;;;;;;;;;;;;;20.11;59.21;101151.47;4955204;29;19923;-79
2023/07/16 09:03:11;;;;;;;;;;;;;;;20.04;59.29;101136.66;4933788;29;20323;-78
2023/07/16 09:05:36;;;;;;;;;;;;;;;19.98;59.73;101151.31;4936224;29;19919;-77
2023/07/16 09:08:02;;;;;;;;;;;;;;;20.14;60.00;101146.78;4955203;29;19933;-77
2023/07/16 09:10:27;;;;;;;;;;;;;;;20.39;58.63;101164.19;4954710;28;19919;-77
2023/07/16 09:12:52;;;;;;;;;;;;;;;20.49;58.49;101157.31;4955055;28;19922;-77
2023/07/16 09:15:19;;;;;;;;;;;;;;;20.63;58.25;101163.78;4934746;29;19980;-78
2023/07/16 09:17:48;;;;;;;;;;;;;;;20.51;57.55;101160.78;4920136;29;19927;-77
2023/07/16 09:20:17;;;;;;;;;;;;;;;20.34;57.89;101166.28;4936823;29;19933;-78
2023/07/16 09:22:43;;;;;;;;;;;;;;;20.10;59.12;101169.44;4937007;29;19974;-78
2023/07/16 09:25:08;;;;;;;;;;;;;;;20.03;58.84;101168.03;4936780;29;20338;-78
2023/07/16 09:27:33;;;;;;;;;;;;;;;20.07;59.35;101174.97;4936955;29;19919;-77
2023/07/16 09:30:02;;;;;;;;;;;;;;;19.96;60.43;101167.50;4936788;29;19920;-78
2023/07/16 09:32:39;;;;;;;;;;;;;;;20.09;60.55;101170.38;4903799;29;20330;-77
2023/07/16 09:35:09;;;;;;;;;;;;;;;20.42;58.62;101166.69;4936768;29;20274;-80
2023/07/16 09:37:36;;;;;;;;;;;;;;;20.45;58.86;101168.34;4937296;29;19919;-77
2023/07/16 09:40:03;;;;;;;;;;;;;;;20.47;59.46;101179.88;4936969;29;19930;-79
2023/07/16 09:42:28;;;;;;;;;;;;;;;20.53;59.63;101166.97;4935462;29;19927;-78
2023/07/16 09:44:54;;;;;;;;;;;;;;;20.72;60.18;101171.28;4936785;29;19923;-78
2023/07/16 09:47:19;;;;;;;;;;;;;;;20.91;60.11;101177.31;4936518;29;20061;-78
2023/07/16 09:49:45;;;;;;;;;;;;;;;21.03;58.23;101178.41;4919302;29;20050;-79
2023/07/16 09:52:11;;;;;;;;;;;;;;;21.02;58.86;101184.75;4936854;29;19923;-78
2023/07/16 09:54:38;;;;;;;;;;;;;;;21.07;56.72;101173.69;4919322;29;20302;-77
2023/07/16 09:57:04;;;;;;;;;;;;;;;20.85;56.56;101191.16;4936544;29;19926;-78
2023/07/16 09:59:31;;;;;;;;;;;;;;;20.80;57.54;101196.78;4919280;29;19923;-79
2023/07/16 10:01:57;;;;;;;;;;;;;;;20.79;57.60;101192.34;4924788;29;19926;-77
2023/07/16 10:04:22;;;;;;;;;;;;;;;20.80;57.78;101179.78;4927478;29;19918;-80
2023/07/16 10:06:51;;;;;;;;;;;;;;;20.80;58.59;101190.56;4923019;29;19953;-79
2023/07/16 10:09:35;;;;;;;;;;;;;;;20.97;57.84;101190.41;4930786;29;19979;-79
2023/07/16 10:12:10;;;;;;;;;;;;;;;21.12;56.46;101194.00;4924257;29;19927;-78
2023/07/16 10:14:39;;;;;;;;;;;;;;;21.09;57.46;101196.84;4923953;29;20014;-79
2023/07/16 10:17:05;;;;;;;;;;;;;;;21.09;57.16;101209.47;4954171;29;19926;-79
2023/07/16 10:19:30;;;;;;;;;;;;;;;21.04;56.26;101209.75;4955308;29;19927;-78
2023/07/16 10:21:56;;;;;;;;;;;;;;;21.01;55.56;101210.78;4928383;29;20456;-78
2023/07/16 10:24:26;;;;;;;;;;;;;;;21.02;56.12;101207.16;4936931;29;20011;-79
2023/07/16 10:26:52;;;;;;;;;;;;;;;21.01;55.96;101218.00;4931322;29;20013;-79
2023/07/16 10:29:17;;;;;;;;;;;;;;;21.10;56.38;101224.69;4949549;29;20101;-79
2023/07/16 10:31:45;;;;;;;;;;;;;;;21.20;57.24;101217.78;4925937;29;20222;-79
2023/07/16 10:34:11;;;;;;;;;;;;;;;21.23;55.92;101226.53;4947309;29;19977;-78
2023/07/16 10:36:37;;;;;;;;;;;;;;;21.20;56.11;101215.94;4923016;29;19929;-78
2023/07/16 10:39:03;;;;;;;;;;;;;;;21.27;56.12;101220.00;4935369;29;20280;-77
2023/07/16 10:41:30;;;;;;;;;;;;;;;21.40;55.72;101232.75;4932989;29;19927;-77
2023/07/16 10:43:56;;;;;;;;;;;;;;;21.42;56.08;101217.38;4926011;29;19954;-79
2023/07/16 10:46:21;;;;;;;;;;;;;;;21.76;53.42;101228.72;4949639;29;20048;-78
2023/07/16 10:48:47;;;;;;;;;;;;;;;21.85;53.07;101226.31;4913101;29;19923;-78
2023/07/16 10:51:16;;;;;;;;;;;;;;;22.02;51.86;101230.66;4929647;29;19954;-78
2023/07/16 10:53:42;;;;;;;;;;;;;;;21.84;52.04;101238.09;4934184;29;19958;-80
2023/07/16 10:56:07;;;;;;;;;;;;;;;21.67;51.68;101225.66;4922854;29;19970;-78
2023/07/16 10:58:33;;;;;;;;;;;;;;;21.38;52.25;101248.13;4929842;29;20472;-77
2023/07/16 11:00:58;;;;;;;;;;;;;;;20.97;54.13;101238.00;4914836;29;19923;-78
2023/07/16 11:03:24;;;;;;;;;;;;;;;20.83;54.58;101239.66;4927670;29;19960;-78
2023/07/16 11:05:49;;;;;;;;;;;;;;;20.72;55.74;101244.84;4926134;29;19922;-78
2023/07/16 11:08:24;;;;;;;;;;;;;;;20.72;55.17;101260.97;4930510;29;20005;-77
2023/07/16 11:10:53;;;;;;;;;;;;;;;20.59;56.78;101252.72;4923859;29;19977;-78
2023/07/16 11:13:18;;;;;;;;;;;;;;;20.71;56.64;101255.66;4942572;28;19922;-78
2023/07/16 11:15:44;;;;;;;;;;;;;;;20.78;57.08;101260.59;4942784;29;19933;-77
2023/07/16 11:18:09;;;;;;;;;;;;;;;20.97;55.53;101259.56;4954272;28;20373;-79
2023/07/16 11:20:35;;;;;;;;;;;;;;;20.90;55.47;101253.66;4936977;29;19925;-78
2023/07/16 11:23:01;;;;;;;;;;;;;;;20.85;56.16;101269.19;4936886;29;19933;-78
2023/07/16 11:25:27;;;;;;;;;;;;;;;20.88;55.61;101271.72;4954017;28;20017;-78
2023/07/16 11:27:54;;;;;;;;;;;;;;;21.16;55.63;101262.00;4954499;28;19961;-78
2023/07/16 11:30:22;;;;;;;;;;;;;;;21.31;56.13;101262.91;4955132;28;20393;-78
2023/07/16 11:32:48;;;;;;;;;;;;;;;21.40;55.63;101263.25;4956689;29;19953;-78
2023/07/16 11:35:17;;;;;;;;;;;;;;;21.62;53.56;101268.22;4959088;28;19922;-77
2023/07/16 11:37:43;;;;;;;;;;;;;;;21.47;54.39;101283.47;4957623;28;20342;-80
2023/07/16 11:40:10;;;;;;;;;;;;;;;21.38;53.84;101286.69;4960744;28;19993;-79
2023/07/16 11:42:37;;;;;;;;;;;;;;;21.37;54.52;101286.81;4936802;29;19929;-78
2023/07/16 11:45:03;;;;;;;;;;;;;;;21.32;54.94;101275.44;4936545;29;19942;-79
2023/07/16 11:47:28;;;;;;;;;;;;;;;21.22;55.40;101284.06;4955920;28;19923;-78
2023/07/16 11:49:54;;;;;;;;;;;;;;;21.33;55.62;101282.53;4936461;29;20404;-78
2023/07/16 11:52:23;;;;;;;;;;;;;;;21.41;54.96;101281.19;4953698;28;19933;-78
2023/07/16 11:54:49;;;;;;;;;;;;;;;21.44;55.70;101282.81;4920085;29;19926;-77
2023/07/16 11:57:14;;;;;;;;;;;;;;;21.43;54.78;101289.16;4953382;28;19919;-79
2023/07/16 11:59:40;;;;;;;;;;;;;;;21.20;56.67;101296.75;4935347;29;19926;-79
2023/07/16 12:02:06;;;;;;;;;;;;;;;21.09;60.74;101314.47;4942462;28;19979;-80
2023/07/16 12:04:31;;;;;;;;;;;;;;;20.70;63.82;101311.31;4948275;28;20374;-81
2023/07/16 12:06:56;;;;;;;;;;;;;;;20.54;65.39;101313.97;4944617;28;19929;-79
2023/07/16 12:09:22;;;;;;;;;;;;;;;20.50;67.86;101312.41;4932881;29;20359;-78
2023/07/16 12:11:47;;;;;;;;;;;;;;;20.59;68.54;101311.91;4951108;29;20187;-76
2023/07/16 12:14:13;;;;;;;;;;;;;;;20.77;67.37;101309.13;4952906;28;20017;-76
2023/07/16 12:16:38;;;;;;;;;;;;;;;20.81;68.63;101310.69;4949829;28;19937;-77
2023/07/16 12:19:05;;;;;;;;;;;;;;;20.98;67.47;101307.91;4945939;28;19927;-77
2023/07/16 12:21:30;;;;;;;;;;;;;;;21.04;67.56;101303.97;4946671;29;20017;-77
2023/07/16 12:23:56;;;;;;;;;;;;;;;21.32;65.26;101297.84;4952882;29;20014;-76
2023/07/16 12:26:21;;;;;;;;;;;;;;;21.47;65.40;101307.72;4934978;29;19942;-75
2023/07/16 12:28:47;;;;;;;;;;;;;;;21.53;61.29;101302.94;4953022;29;20013;-76